createdAt,value
2022-10-23T00:00:07.059Z,67.47
2022-10-23T00:02:33.860Z,67.65
2022-10-23T00:05:00.486Z,67.74
2022-10-23T00:07:27.156Z,67.88
2022-10-23T00:09:53.821Z,67.79
2022-10-23T00:12:20.449Z,67.83
2022-10-23T00:14:47.043Z,68.37
2022-10-23T00:17:13.659Z,69.33
2022-10-23T00:19:40.238Z,68.57
2022-10-23T00:22:06.839Z,67.87
2022-10-23T00:24:33.434Z,68.10
2022-10-23T00:27:00.088Z,68.61
2022-10-23T00:29:26.674Z,68.12
2022-10-23T00:31:53.262Z,68.53
2022-10-23T00:34:19.930Z,68.55
2022-10-23T00:36:46.522Z,68.89
2022-10-23T00:39:13.160Z,68.43
2022-10-23T00:41:39.763Z,69.17
2022-10-23T00:44:06.387Z,68.87
2022-10-23T00:46:32.975Z,69.27
2022-10-23T00:48:59.658Z,69.27
2022-10-23T00:51:26.288Z,69.14
2022-10-23T00:54:01.326Z,69.28
2022-10-23T00:56:39.503Z,69.29
2022-10-23T00:59:06.119Z,68.70
2022-10-23T01:01:32.863Z,68.39
2022-10-23T01:03:59.586Z,68.01
2022-10-23T01:06:26.182Z,67.71
2022-10-23T01:08:52.801Z,67.97
2022-10-23T01:11:19.432Z,68.39
2022-10-23T01:13:46.013Z,68.70
2022-10-23T01:16:12.656Z,68.60
2022-10-23T01:18:39.268Z,68.97
2022-10-23T01:21:05.882Z,68.58
2022-10-23T01:23:32.489Z,68.25
2022-10-23T01:25:59.162Z,68.28
2022-10-23T01:28:25.757Z,68.13
2022-10-23T01:30:52.384Z,68.05
2022-10-23T01:33:19.102Z,68.16
2022-10-23T01:35:45.683Z,68.57
2022-10-23T01:38:12.299Z,68.29
2022-10-23T01:40:38.896Z,68.19
2022-10-23T01:43:05.515Z,68.11
2022-10-23T01:45:32.329Z,68.98
2022-10-23T01:47:58.943Z,69.38
2022-10-23T01:50:25.557Z,69.60
2022-10-23T01:52:52.144Z,69.94
2022-10-23T01:55:18.762Z,69.93
2022-10-23T01:57:45.532Z,70.78
2022-10-23T02:00:12.282Z,70.66
2022-10-23T02:02:38.880Z,71.22
2022-10-23T02:05:05.503Z,70.43
2022-10-23T02:07:32.095Z,70.24
2022-10-23T02:09:58.687Z,69.84
2022-10-23T02:12:25.294Z,68.94
2022-10-23T02:14:51.884Z,69.90
2022-10-23T02:17:18.497Z,69.11
2022-10-23T02:19:45.107Z,68.45
2022-10-23T02:22:11.725Z,68.18
2022-10-23T02:24:38.344Z,68.73
2022-10-23T02:27:04.947Z,68.65
2022-10-23T02:29:31.555Z,69.34
2022-10-23T02:31:58.145Z,68.66
2022-10-23T02:34:24.771Z,68.66
2022-10-23T02:36:51.357Z,69.28
2022-10-23T02:39:18.003Z,68.95
2022-10-23T02:41:44.647Z,69.16
2022-10-23T02:44:11.242Z,68.90
2022-10-23T02:46:37.876Z,69.05
2022-10-23T02:49:04.472Z,69.36
2022-10-23T02:51:31.079Z,69.42
2022-10-23T02:56:29.161Z,68.55
2022-10-23T02:58:55.741Z,68.27
2022-10-23T03:01:22.387Z,68.49
2022-10-23T03:03:49.096Z,68.27
2022-10-23T03:06:15.687Z,68.21
2022-10-23T03:08:42.315Z,67.90
2022-10-23T03:11:08.907Z,67.66
2022-10-23T03:13:35.543Z,68.48
2022-10-23T03:16:02.133Z,68.35
2022-10-23T03:18:28.748Z,67.94
2022-10-23T03:20:55.351Z,67.82
2022-10-23T03:23:21.935Z,68.55
2022-10-23T03:25:48.563Z,67.90
2022-10-23T03:28:15.165Z,68.27
2022-10-23T03:30:41.776Z,67.87
2022-10-23T03:33:08.378Z,67.92
2022-10-23T03:35:35.112Z,67.84
2022-10-23T03:38:01.749Z,67.70
2022-10-23T03:40:28.368Z,68.52
2022-10-23T03:42:54.957Z,68.75
2022-10-23T03:45:21.544Z,67.89
2022-10-23T03:47:48.151Z,67.63
2022-10-23T03:50:14.777Z,67.75
2022-10-23T03:52:41.562Z,67.54
2022-10-23T03:55:08.333Z,67.17
2022-10-23T03:57:34.943Z,67.35
2022-10-23T04:00:01.540Z,66.85
2022-10-23T04:02:28.251Z,68.04
2022-10-23T04:04:54.921Z,67.67
2022-10-23T04:07:21.527Z,67.28
2022-10-23T04:09:48.214Z,66.60
2022-10-23T04:12:14.847Z,66.57
2022-10-23T04:14:41.433Z,66.91
2022-10-23T04:17:08.141Z,67.21
2022-10-23T04:19:34.773Z,67.38
2022-10-23T04:22:01.392Z,66.80
2022-10-23T04:24:27.978Z,67.24
2022-10-23T04:26:54.599Z,68.11
2022-10-23T04:29:21.180Z,68.13
2022-10-23T04:31:47.773Z,67.38
2022-10-23T04:34:14.412Z,67.52
2022-10-23T04:36:41.073Z,67.33
2022-10-23T04:39:07.691Z,67.32
2022-10-23T04:41:34.314Z,66.82
2022-10-23T04:44:00.911Z,67.27
2022-10-23T04:46:27.549Z,67.55
2022-10-23T04:48:54.143Z,68.24
2022-10-23T04:51:20.775Z,68.80
2022-10-23T04:53:47.359Z,68.47
2022-10-23T04:56:13.999Z,68.25
2022-10-23T04:58:40.583Z,68.51
2022-10-23T05:01:07.280Z,70.80
2022-10-23T05:03:33.979Z,70.01
2022-10-23T05:06:00.584Z,69.66
2022-10-23T05:08:27.195Z,71.17
2022-10-23T05:10:53.828Z,71.92
2022-10-23T05:13:20.425Z,71.16
2022-10-23T05:15:47.047Z,71.09
2022-10-23T05:18:13.659Z,70.40
2022-10-23T05:20:40.279Z,70.51
2022-10-23T05:23:06.864Z,69.97
2022-10-23T05:25:33.506Z,71.16
2022-10-23T05:28:00.108Z,69.95
2022-10-23T05:30:26.748Z,70.39
2022-10-23T05:32:53.335Z,70.98
2022-10-23T05:35:19.918Z,70.94
2022-10-23T05:37:46.529Z,70.25
2022-10-23T05:40:13.132Z,69.25
2022-10-23T05:42:41.723Z,69.18
2022-10-23T05:45:08.531Z,69.02
2022-10-23T05:47:35.155Z,69.43
2022-10-23T05:50:01.762Z,70.22
2022-10-23T05:52:28.372Z,68.98
2022-10-23T05:54:54.993Z,68.83
2022-10-23T05:57:21.602Z,68.90
2022-10-23T05:59:48.226Z,68.50
2022-10-23T06:02:14.876Z,68.16
2022-10-23T06:04:41.541Z,68.10
2022-10-23T06:07:08.163Z,67.74
2022-10-23T06:09:34.795Z,67.61
2022-10-23T06:12:01.386Z,67.56
2022-10-23T06:14:28.005Z,67.95
2022-10-23T06:16:54.612Z,68.43
2022-10-23T06:19:21.251Z,69.69
2022-10-23T06:21:47.864Z,70.00
2022-10-23T06:24:14.475Z,69.43
2022-10-23T06:26:41.098Z,69.24
2022-10-23T06:29:07.722Z,68.85
2022-10-23T06:31:34.386Z,68.84
2022-10-23T06:34:00.978Z,68.72
2022-10-23T06:36:27.591Z,69.01
2022-10-23T06:38:54.280Z,68.72
2022-10-23T06:41:20.944Z,69.04
2022-10-23T06:46:31.838Z,69.36
2022-10-23T06:48:58.418Z,69.50
2022-10-23T06:51:25.028Z,70.79
2022-10-23T06:53:51.638Z,70.62
2022-10-23T06:56:18.244Z,69.89
2022-10-23T06:58:44.840Z,69.40
2022-10-23T07:01:11.603Z,68.85
2022-10-23T07:03:38.362Z,69.42
2022-10-23T07:06:04.968Z,69.47
2022-10-23T07:08:31.580Z,69.00
2022-10-23T07:10:58.195Z,68.46
2022-10-23T07:13:24.774Z,68.65
2022-10-23T07:15:51.411Z,69.49
2022-10-23T07:18:17.996Z,69.37
2022-10-23T07:20:44.608Z,68.97
2022-10-23T07:23:11.200Z,69.19
2022-10-23T07:25:37.838Z,68.77
2022-10-23T07:28:04.456Z,68.62
2022-10-23T07:30:31.069Z,68.00
2022-10-23T07:32:57.680Z,67.83
2022-10-23T07:35:24.260Z,67.97
2022-10-23T07:37:50.884Z,69.19
2022-10-23T07:40:17.523Z,69.27
2022-10-23T07:42:44.146Z,69.14
2022-10-23T07:45:10.772Z,67.40
2022-10-23T07:47:37.381Z,67.00
2022-10-23T07:50:03.997Z,65.97
2022-10-23T07:52:33.481Z,65.68
2022-10-23T07:55:02.457Z,63.88
2022-10-23T07:57:29.076Z,64.75
2022-10-23T07:59:55.682Z,66.63
2022-10-23T08:02:22.420Z,66.74
2022-10-23T08:04:49.064Z,65.96
2022-10-23T08:07:15.707Z,66.38
2022-10-23T08:09:42.300Z,65.88
2022-10-23T08:12:08.912Z,64.78
2022-10-23T08:14:35.523Z,65.45
2022-10-23T08:19:33.649Z,66.77
2022-10-23T08:22:00.242Z,67.31
2022-10-23T08:24:26.896Z,66.67
2022-10-23T08:26:53.489Z,66.02
2022-10-23T08:29:20.171Z,66.73
2022-10-23T08:31:46.770Z,66.31
2022-10-23T08:34:13.384Z,66.13
2022-10-23T08:36:39.994Z,66.49
2022-10-23T08:39:06.588Z,66.39
2022-10-23T08:41:33.198Z,65.52
2022-10-23T08:43:59.816Z,65.26
2022-10-23T08:46:26.450Z,64.62
2022-10-23T08:48:53.065Z,65.20
2022-10-23T08:51:19.682Z,65.25
2022-10-23T08:53:46.275Z,65.95
2022-10-23T08:56:12.916Z,67.40
2022-10-23T08:58:39.525Z,66.87
2022-10-23T09:01:06.221Z,66.46
2022-10-23T09:03:32.882Z,66.78
2022-10-23T09:05:59.487Z,68.54
2022-10-23T09:08:26.102Z,68.15
2022-10-23T09:10:52.722Z,68.65
2022-10-23T09:13:19.316Z,68.28
2022-10-23T09:15:45.930Z,67.27
2022-10-23T09:18:12.549Z,67.10
2022-10-23T09:20:39.143Z,68.02
2022-10-23T09:23:05.764Z,66.93
2022-10-23T09:25:32.355Z,65.72
2022-10-23T09:28:01.385Z,64.76
2022-10-23T09:30:31.048Z,64.62
2022-10-23T09:32:57.667Z,63.54
2022-10-23T09:35:24.285Z,63.85
2022-10-23T09:37:50.880Z,63.39
2022-10-23T09:40:17.503Z,63.14
2022-10-23T09:42:44.120Z,63.09
2022-10-23T09:45:10.757Z,62.95
2022-10-23T09:47:37.385Z,64.32
2022-10-23T09:50:03.986Z,65.44
2022-10-23T09:52:30.600Z,64.01
2022-10-23T09:54:57.195Z,63.13
2022-10-23T09:57:23.816Z,62.39
2022-10-23T09:59:50.411Z,62.68
2022-10-23T10:02:17.198Z,62.24
2022-10-23T10:04:43.904Z,63.17
2022-10-23T10:07:10.500Z,62.12
2022-10-23T10:09:37.262Z,61.97
2022-10-23T10:12:03.883Z,61.34
2022-10-23T10:14:30.500Z,61.85
2022-10-23T10:16:57.121Z,62.43
2022-10-23T10:19:23.764Z,61.73
2022-10-23T10:21:51.279Z,61.95
2022-10-23T10:24:17.906Z,63.50
2022-10-23T10:26:44.532Z,62.88
2022-10-23T10:29:11.156Z,62.92
2022-10-23T10:31:37.791Z,63.22
2022-10-23T10:34:04.396Z,63.35
2022-10-23T10:36:31.013Z,62.19
2022-10-23T10:38:57.632Z,63.07
2022-10-23T10:41:24.213Z,63.87
2022-10-23T10:43:50.848Z,63.62
2022-10-23T10:46:17.472Z,60.80
2022-10-23T10:48:44.138Z,59.20
2022-10-23T10:51:10.736Z,60.60
2022-10-23T10:53:37.362Z,58.29
2022-10-23T10:56:04.064Z,56.96
2022-10-23T10:58:30.738Z,58.25
2022-10-23T11:00:57.373Z,57.34
2022-10-23T11:03:24.099Z,56.08
2022-10-23T11:05:50.758Z,56.03
2022-10-23T11:08:17.438Z,55.70
2022-10-23T11:10:44.031Z,56.35
2022-10-23T11:13:10.701Z,56.84
2022-10-23T11:15:37.293Z,56.85
2022-10-23T11:18:03.904Z,57.71
2022-10-23T11:20:30.534Z,56.38
2022-10-23T11:22:57.153Z,59.37
2022-10-23T11:25:23.788Z,58.89
2022-10-23T11:27:50.402Z,57.52
2022-10-23T11:30:17.020Z,56.84
2022-10-23T11:32:43.659Z,58.68
2022-10-23T11:35:10.297Z,57.07
2022-10-23T11:37:36.916Z,56.71
2022-10-23T11:40:03.516Z,55.37
2022-10-23T11:42:30.143Z,56.31
2022-10-23T11:44:56.802Z,56.13
2022-10-23T11:47:23.394Z,55.88
2022-10-23T11:49:50.014Z,57.69
2022-10-23T11:52:16.634Z,58.61
2022-10-23T11:54:43.234Z,58.32
2022-10-23T11:57:10.698Z,58.28
2022-10-23T11:59:37.491Z,58.21
2022-10-23T12:02:04.291Z,59.11
2022-10-23T12:04:30.939Z,59.08
2022-10-23T12:06:57.587Z,57.60
2022-10-23T12:09:24.250Z,57.15
2022-10-23T12:11:50.847Z,56.71
2022-10-23T12:14:17.477Z,58.43
2022-10-23T12:16:44.092Z,59.43
2022-10-23T12:19:10.685Z,59.78
2022-10-23T12:21:37.298Z,61.01
2022-10-23T12:24:03.887Z,58.42
2022-10-23T12:26:30.514Z,57.44
2022-10-23T12:28:57.112Z,56.94
2022-10-23T12:31:23.731Z,56.40
2022-10-23T12:33:50.342Z,59.05
2022-10-23T12:36:16.981Z,57.81
2022-10-23T12:38:43.571Z,58.42
2022-10-23T12:41:10.227Z,57.56
2022-10-23T12:43:36.845Z,56.78
2022-10-23T12:48:47.679Z,56.35
2022-10-23T12:51:14.373Z,54.92
2022-10-23T12:53:40.985Z,55.38
2022-10-23T12:56:07.600Z,53.40
2022-10-23T12:58:34.236Z,54.01
2022-10-23T13:01:00.908Z,54.10
2022-10-23T13:03:27.705Z,54.92
2022-10-23T13:05:54.328Z,53.53
2022-10-23T13:08:20.931Z,54.44
2022-10-23T13:10:47.529Z,54.98
2022-10-23T13:13:14.162Z,53.99
2022-10-23T13:15:40.782Z,53.56
2022-10-23T13:18:07.408Z,53.28
2022-10-23T13:20:33.996Z,52.09
2022-10-23T13:23:01.105Z,50.67
2022-10-23T13:25:27.911Z,50.84
2022-10-23T13:27:54.508Z,50.69
2022-10-23T13:30:21.127Z,50.22
2022-10-23T13:32:47.791Z,50.51
2022-10-23T13:35:21.312Z,51.60
2022-10-23T13:37:48.722Z,50.92
2022-10-23T13:40:15.340Z,51.08
2022-10-23T13:42:42.197Z,50.09
2022-10-23T13:45:09.130Z,51.35
2022-10-23T13:47:35.775Z,49.94
2022-10-23T13:50:02.372Z,50.66
2022-10-23T13:52:29.012Z,49.73
2022-10-23T13:54:55.600Z,48.78
2022-10-23T13:57:22.221Z,48.23
2022-10-23T13:59:48.847Z,48.33
2022-10-23T14:02:15.564Z,46.64
2022-10-23T14:04:42.284Z,47.88
2022-10-23T14:07:08.902Z,47.25
2022-10-23T14:09:35.492Z,47.27
2022-10-23T14:12:02.088Z,47.73
2022-10-23T14:14:28.727Z,48.06
2022-10-23T14:16:55.347Z,47.92
2022-10-23T14:19:21.940Z,47.74
2022-10-23T14:21:48.596Z,48.30
2022-10-23T14:24:15.216Z,48.64
2022-10-23T14:26:41.839Z,49.04
2022-10-23T14:29:12.685Z,49.79
2022-10-23T14:31:45.237Z,50.29
2022-10-23T14:34:11.846Z,48.96
2022-10-23T14:36:49.623Z,49.46
2022-10-23T14:39:17.248Z,49.30
2022-10-23T14:41:43.849Z,50.45
2022-10-23T14:44:10.436Z,49.77
2022-10-23T14:46:37.089Z,49.85
2022-10-23T14:49:03.686Z,50.26
2022-10-23T14:51:30.285Z,49.92
2022-10-23T14:53:58.864Z,49.88
2022-10-23T14:56:25.712Z,49.70
2022-10-23T14:58:52.351Z,49.19
2022-10-23T15:01:19.080Z,49.93
2022-10-23T15:03:45.827Z,50.58
2022-10-23T15:06:16.065Z,51.36
2022-10-23T15:08:45.122Z,49.77
2022-10-23T15:11:12.740Z,51.20
2022-10-23T15:13:39.569Z,52.17
2022-10-23T15:16:06.177Z,52.47
2022-10-23T15:18:32.848Z,53.64
2022-10-23T15:20:59.547Z,54.22
2022-10-23T15:23:26.169Z,54.73
2022-10-23T15:25:52.800Z,54.96
2022-10-23T15:28:19.447Z,54.81
2022-10-23T15:30:46.052Z,55.58
2022-10-23T15:33:16.456Z,55.96
2022-10-23T15:35:45.621Z,55.77
2022-10-23T15:38:12.242Z,56.09
2022-10-23T15:40:38.835Z,56.98
2022-10-23T15:43:05.455Z,57.24
2022-10-23T15:45:32.039Z,57.28
2022-10-23T15:47:58.656Z,57.41
2022-10-23T15:50:25.311Z,57.83
2022-10-23T15:52:51.913Z,58.18
2022-10-23T15:55:18.547Z,58.37
2022-10-23T15:57:45.144Z,59.29
2022-10-23T16:00:11.778Z,59.21
2022-10-23T16:02:38.410Z,59.45
2022-10-23T16:05:05.062Z,59.41
2022-10-23T16:07:31.707Z,59.75
2022-10-23T16:09:58.297Z,59.49
2022-10-23T16:12:24.941Z,59.70
2022-10-23T16:14:51.522Z,59.76
2022-10-23T16:17:18.147Z,60.04
2022-10-23T16:19:44.739Z,60.62
2022-10-23T16:22:11.336Z,60.28
2022-10-23T16:24:37.953Z,60.48
2022-10-23T16:27:04.569Z,60.87
2022-10-23T16:29:31.170Z,60.34
2022-10-23T16:31:57.839Z,60.73
2022-10-23T16:34:24.530Z,60.96
2022-10-23T16:36:51.165Z,61.54
2022-10-23T16:39:17.790Z,61.50
2022-10-23T16:41:44.415Z,61.73
2022-10-23T16:44:11.050Z,61.11
2022-10-23T16:46:37.682Z,61.00
2022-10-23T16:49:04.318Z,60.98
2022-10-23T16:51:30.963Z,61.03
2022-10-23T16:53:57.591Z,60.84
2022-10-23T16:56:24.261Z,61.61
2022-10-23T16:58:50.876Z,61.99
2022-10-23T17:01:17.583Z,62.58
2022-10-23T17:03:44.260Z,62.30
2022-10-23T17:06:11.352Z,62.40
2022-10-23T17:08:38.103Z,61.81
2022-10-23T17:11:04.732Z,62.36
2022-10-23T17:13:31.343Z,63.26
2022-10-23T17:15:57.952Z,62.97
2022-10-23T17:18:24.570Z,62.47
2022-10-23T17:20:51.183Z,62.25
2022-10-23T17:23:17.857Z,62.46
2022-10-23T17:25:44.479Z,62.63
2022-10-23T17:28:11.207Z,62.72
2022-10-23T17:30:37.854Z,62.60
2022-10-23T17:33:04.489Z,63.61
2022-10-23T17:35:31.100Z,63.63
2022-10-23T17:37:57.724Z,63.17
2022-10-23T17:40:25.269Z,63.29
2022-10-23T17:42:51.981Z,63.30
2022-10-23T17:45:18.618Z,63.50
2022-10-23T17:47:45.243Z,63.27
2022-10-23T17:50:11.874Z,62.92
2022-10-23T17:52:38.478Z,63.10
2022-10-23T17:55:05.105Z,62.96
2022-10-23T17:57:31.715Z,63.10
2022-10-23T17:59:58.349Z,63.12
2022-10-23T18:02:25.048Z,63.44
2022-10-23T18:04:51.793Z,63.44
2022-10-23T18:07:18.413Z,63.49
2022-10-23T18:09:45.011Z,64.91
2022-10-23T18:12:11.650Z,64.27
2022-10-23T18:14:38.247Z,63.54
2022-10-23T18:17:04.852Z,64.23
2022-10-23T18:19:31.493Z,64.23
2022-10-23T18:21:58.093Z,64.10
2022-10-23T18:24:24.711Z,64.06
2022-10-23T18:26:51.321Z,63.60
2022-10-23T18:29:17.942Z,63.80
2022-10-23T18:31:44.542Z,63.65
2022-10-23T18:34:11.150Z,63.80
2022-10-23T18:36:37.773Z,63.84
2022-10-23T18:39:04.414Z,64.40
2022-10-23T18:41:31.030Z,64.17
2022-10-23T18:43:57.673Z,64.77
2022-10-23T18:46:24.279Z,64.91
2022-10-23T18:48:50.980Z,64.32
2022-10-23T18:51:17.601Z,64.80
2022-10-23T18:53:44.216Z,64.67
2022-10-23T18:56:10.856Z,64.27
2022-10-23T18:58:37.473Z,64.69
2022-10-23T19:01:04.201Z,64.84
2022-10-23T19:03:30.947Z,65.29
2022-10-23T19:05:57.561Z,65.94
2022-10-23T19:08:24.183Z,66.22
2022-10-23T19:10:50.796Z,65.91
2022-10-23T19:13:17.430Z,65.90
2022-10-23T19:15:44.028Z,66.29
2022-10-23T19:18:10.651Z,66.39
2022-10-23T19:20:37.245Z,66.01
2022-10-23T19:23:03.876Z,66.38
2022-10-23T19:25:30.541Z,67.07
2022-10-23T19:27:57.217Z,66.89
2022-10-23T19:30:23.844Z,66.59
2022-10-23T19:32:50.700Z,67.30
2022-10-23T19:35:17.331Z,67.05
2022-10-23T19:37:44.221Z,67.70
2022-10-23T19:40:10.974Z,68.04
2022-10-23T19:42:37.606Z,68.17
2022-10-23T19:45:04.209Z,67.71
2022-10-23T19:47:30.809Z,67.75
2022-10-23T19:49:57.437Z,68.23
2022-10-23T19:52:24.082Z,68.38
2022-10-23T19:54:50.706Z,68.44
2022-10-23T19:57:19.297Z,67.85
2022-10-23T19:59:48.499Z,67.81
2022-10-23T20:02:15.170Z,67.57
2022-10-23T20:04:41.915Z,66.61
2022-10-23T20:07:08.526Z,66.55
2022-10-23T20:09:35.153Z,66.50
2022-10-23T20:12:01.773Z,66.95
2022-10-23T20:14:28.394Z,67.79
2022-10-23T20:16:56.057Z,67.59
2022-10-23T20:19:22.881Z,67.20
2022-10-23T20:21:49.480Z,66.66
2022-10-23T20:24:16.080Z,66.28
2022-10-23T20:26:42.724Z,65.95
2022-10-23T20:29:09.363Z,65.86
2022-10-23T20:31:35.990Z,65.47
2022-10-23T20:34:02.589Z,66.98
2022-10-23T20:36:29.225Z,67.21
2022-10-23T20:38:55.813Z,68.26
2022-10-23T20:41:22.423Z,68.02
2022-10-23T20:43:49.010Z,67.47
2022-10-23T20:46:15.628Z,67.64
2022-10-23T20:48:42.225Z,67.35
2022-10-23T20:51:08.835Z,67.20
2022-10-23T20:53:35.464Z,67.48
2022-10-23T20:56:02.061Z,68.09
2022-10-23T20:58:28.658Z,69.70
2022-10-23T21:03:39.723Z,68.86
2022-10-23T21:06:06.349Z,69.50
2022-10-23T21:08:32.960Z,71.83
2022-10-23T21:10:59.581Z,71.43
2022-10-23T21:13:26.231Z,70.37
2022-10-23T21:15:52.876Z,70.22
2022-10-23T21:18:41.110Z,70.60
2022-10-23T21:21:06.086Z,70.42
2022-10-23T21:23:32.694Z,70.21
2022-10-23T21:26:02.225Z,69.54
2022-10-23T21:28:31.377Z,68.60
2022-10-23T21:30:57.981Z,68.01
2022-10-23T21:33:24.569Z,67.24
2022-10-23T21:35:58.463Z,67.06
2022-10-23T21:38:31.307Z,68.02
2022-10-23T21:40:57.954Z,69.29
2022-10-23T21:43:24.572Z,70.69
2022-10-23T21:45:54.300Z,69.78
2022-10-23T21:48:22.063Z,69.04
2022-10-23T21:53:16.185Z,69.28
2022-10-23T21:55:42.793Z,68.71
2022-10-23T21:58:09.412Z,68.24
2022-10-23T22:00:36.001Z,68.41
2022-10-23T22:03:02.637Z,68.75
2022-10-23T22:05:29.275Z,69.29
2022-10-23T22:07:55.882Z,69.16
2022-10-23T22:10:22.518Z,69.58
2022-10-23T22:12:49.140Z,69.79
2022-10-23T22:15:15.755Z,70.72
2022-10-23T22:17:42.703Z,71.50
2022-10-23T22:20:09.542Z,69.88
2022-10-23T22:22:36.172Z,69.09
2022-10-23T22:25:02.819Z,69.16
2022-10-23T22:27:29.411Z,68.83
2022-10-23T22:29:56.039Z,68.19
2022-10-23T22:32:22.661Z,67.71
2022-10-23T22:34:52.981Z,68.50
2022-10-23T22:37:20.010Z,69.35
2022-10-23T22:39:46.626Z,69.08
2022-10-23T22:42:13.228Z,68.56
2022-10-23T22:44:39.879Z,68.49
2022-10-23T22:47:06.477Z,68.11
2022-10-23T22:49:33.091Z,67.85
2022-10-23T22:51:59.732Z,67.79
2022-10-23T22:54:26.352Z,67.46
2022-10-23T22:56:52.963Z,67.97
2022-10-23T22:59:19.543Z,68.77
2022-10-23T23:01:46.179Z,67.44
2022-10-23T23:04:25.912Z,67.50
2022-10-23T23:06:52.739Z,70.31
2022-10-23T23:09:19.368Z,70.25
2022-10-23T23:11:51.915Z,70.13
2022-10-23T23:14:22.128Z,68.83
2022-10-23T23:16:50.698Z,69.97
2022-10-23T23:19:17.317Z,70.27
2022-10-23T23:21:43.942Z,70.10
2022-10-23T23:24:10.529Z,69.19
2022-10-23T23:26:37.144Z,69.50
2022-10-23T23:29:03.766Z,68.95
2022-10-23T23:31:30.385Z,68.49
2022-10-23T23:33:57.002Z,67.66
2022-10-23T23:36:23.615Z,67.80
2022-10-23T23:38:50.334Z,67.74
2022-10-23T23:41:17.016Z,70.38
2022-10-23T23:43:43.633Z,69.48
2022-10-23T23:46:10.241Z,68.79
2022-10-23T23:48:36.870Z,67.94
2022-10-23T23:51:03.455Z,67.34
2022-10-23T23:53:30.069Z,67.21
2022-10-23T23:55:56.700Z,67.77
2022-10-23T23:58:23.287Z,68.25
